createdAt,value
2022-08-17T00:00:42.684Z,20.97
2022-08-17T00:03:18.107Z,20.93
2022-08-17T00:05:48.536Z,20.90
2022-08-17T00:08:20.205Z,20.88
2022-08-17T00:10:50.331Z,20.86
2022-08-17T00:13:21.625Z,20.85
2022-08-17T00:15:51.729Z,20.87
2022-08-17T00:19:06.057Z,20.86
2022-08-17T00:21:10.829Z,20.83
2022-08-17T00:23:44.268Z,20.82
2022-08-17T00:26:34.891Z,20.79
2022-08-17T00:29:09.838Z,20.76
2022-08-17T00:31:49.374Z,20.74
2022-08-17T00:34:18.220Z,20.74
2022-08-17T00:36:46.568Z,20.72
2022-08-17T00:39:14.937Z,20.71
2022-08-17T00:41:43.485Z,20.70
2022-08-17T00:44:12.571Z,20.70
2022-08-17T00:46:43.146Z,20.68
2022-08-17T00:49:13.228Z,20.64
2022-08-17T00:51:50.966Z,20.61
2022-08-17T00:54:24.411Z,20.57
2022-08-17T00:57:16.074Z,20.56
2022-08-17T01:00:02.014Z,20.54
2022-08-17T01:02:42.391Z,20.52
2022-08-17T01:05:26.606Z,20.50
2022-08-17T01:07:57.776Z,20.48
2022-08-17T01:10:58.523Z,20.44
2022-08-17T01:13:39.770Z,20.40
2022-08-17T01:16:26.501Z,20.39
2022-08-17T01:18:59.677Z,20.39
2022-08-17T01:21:36.559Z,20.37
2022-08-17T01:24:05.396Z,20.36
2022-08-17T01:26:35.781Z,20.30
2022-08-17T01:29:05.736Z,20.22
2022-08-17T01:31:39.010Z,20.16
2022-08-17T01:34:10.946Z,20.15
2022-08-17T01:36:42.608Z,20.15
2022-08-17T01:39:21.735Z,20.15
2022-08-17T01:41:53.809Z,20.15
2022-08-17T01:44:24.219Z,20.14
2022-08-17T01:46:53.337Z,20.12
2022-08-17T01:49:21.876Z,20.08
2022-08-17T01:51:50.421Z,20.06
2022-08-17T01:54:20.985Z,20.04
2022-08-17T01:56:53.131Z,20.02
2022-08-17T01:59:21.555Z,20.01
2022-08-17T02:01:50.916Z,20.01
2022-08-17T02:04:19.236Z,20.02
2022-08-17T02:06:53.416Z,19.99
2022-08-17T02:09:25.897Z,20.00
2022-08-17T02:11:56.388Z,20.00
2022-08-17T02:14:26.323Z,19.99
2022-08-17T02:16:56.282Z,19.97
2022-08-17T02:19:24.777Z,19.96
2022-08-17T02:21:54.563Z,19.94
2022-08-17T02:24:59.469Z,19.91
2022-08-17T02:27:17.957Z,19.88
2022-08-17T02:29:46.406Z,19.87
2022-08-17T02:32:28.089Z,19.84
2022-08-17T02:34:58.346Z,19.81
2022-08-17T02:37:28.582Z,19.78
2022-08-17T02:39:58.671Z,19.76
2022-08-17T02:42:34.282Z,19.74
2022-08-17T02:45:05.546Z,19.74
2022-08-17T02:47:34.953Z,19.75
2022-08-17T02:50:05.874Z,19.77
2022-08-17T02:52:42.766Z,19.75
2022-08-17T02:55:20.806Z,19.71
2022-08-17T02:57:50.411Z,19.67
2022-08-17T03:00:22.956Z,19.64
2022-08-17T03:02:52.296Z,19.60
2022-08-17T03:05:24.282Z,19.59
2022-08-17T03:07:52.836Z,19.59
2022-08-17T03:10:24.913Z,19.58
2022-08-17T03:12:54.362Z,19.57
2022-08-17T03:15:31.165Z,19.54
2022-08-17T03:18:01.972Z,19.51
2022-08-17T03:20:32.568Z,19.47
2022-08-17T03:23:02.696Z,19.45
2022-08-17T03:25:37.913Z,19.43
2022-08-17T03:28:08.206Z,19.42
2022-08-17T03:30:37.015Z,19.42
2022-08-17T03:33:07.838Z,19.39
2022-08-17T03:35:40.573Z,19.37
2022-08-17T03:38:11.188Z,19.35
2022-08-17T03:40:57.975Z,19.32
2022-08-17T03:43:31.593Z,19.30
2022-08-17T03:46:27.103Z,19.31
2022-08-17T03:49:26.744Z,19.31
2022-08-17T03:52:16.107Z,19.29
2022-08-17T03:55:03.421Z,19.27
2022-08-17T03:57:32.577Z,19.24
2022-08-17T04:00:01.183Z,19.23
2022-08-17T04:02:33.132Z,19.20
2022-08-17T04:05:02.291Z,19.18
2022-08-17T04:07:31.860Z,19.17
2022-08-17T04:10:00.562Z,19.18
2022-08-17T04:12:31.931Z,19.16
2022-08-17T04:15:00.241Z,19.15
2022-08-17T04:17:29.725Z,19.14
2022-08-17T04:19:58.503Z,19.13
2022-08-17T04:22:33.039Z,19.13
2022-08-17T04:25:07.294Z,19.13
2022-08-17T04:27:36.159Z,19.14
2022-08-17T04:30:07.537Z,19.17
2022-08-17T04:33:00.440Z,19.19
2022-08-17T04:35:50.789Z,19.20
2022-08-17T04:38:22.044Z,19.22
2022-08-17T04:41:10.489Z,19.23
2022-08-17T04:43:40.882Z,19.26
2022-08-17T04:46:12.736Z,19.29
2022-08-17T04:48:46.854Z,19.35
2022-08-17T04:51:23.216Z,19.42
2022-08-17T04:53:54.997Z,19.49
2022-08-17T04:56:26.126Z,19.55
2022-08-17T04:58:57.912Z,19.60
2022-08-17T05:01:28.837Z,19.65
2022-08-17T05:03:59.727Z,19.70
2022-08-17T05:06:30.947Z,19.79
2022-08-17T05:08:59.624Z,19.89
2022-08-17T05:11:29.979Z,19.99
2022-08-17T05:13:59.890Z,20.09
2022-08-17T05:16:29.052Z,20.21
2022-08-17T05:18:59.481Z,20.34
2022-08-17T05:21:28.522Z,20.47
2022-08-17T05:23:59.051Z,20.71
2022-08-17T05:26:29.365Z,20.90
2022-08-17T05:29:02.527Z,21.01
2022-08-17T05:31:32.028Z,21.08
2022-08-17T05:34:00.396Z,21.29
2022-08-17T05:36:38.070Z,21.68
2022-08-17T05:39:16.151Z,22.06
2022-08-17T05:41:48.575Z,22.13
2022-08-17T05:44:17.257Z,22.15
2022-08-17T05:46:50.379Z,22.16
2022-08-17T05:49:27.352Z,22.22
2022-08-17T05:52:18.831Z,22.43
2022-08-17T05:55:07.326Z,22.80
2022-08-17T05:57:56.035Z,22.96
2022-08-17T06:00:51.143Z,23.32
2022-08-17T06:03:41.098Z,23.67
2022-08-17T06:06:17.636Z,23.99
2022-08-17T06:09:04.215Z,24.20
2022-08-17T06:11:32.797Z,24.34
2022-08-17T06:14:31.001Z,24.39
2022-08-17T06:17:04.915Z,24.57
2022-08-17T06:20:00.734Z,24.77
2022-08-17T06:22:42.534Z,24.99
2022-08-17T06:25:16.590Z,25.09
2022-08-17T06:27:55.902Z,25.08
2022-08-17T06:30:28.610Z,25.04
2022-08-17T06:33:23.024Z,25.01
2022-08-17T06:36:09.277Z,25.01
2022-08-17T06:38:53.820Z,25.06
2022-08-17T06:41:43.220Z,25.12
2022-08-17T06:44:42.128Z,25.15
2022-08-17T06:47:28.456Z,25.16
2022-08-17T06:50:03.544Z,25.20
2022-08-17T06:52:46.730Z,25.22
2022-08-17T06:58:33.501Z,25.33
2022-08-17T07:01:17.094Z,25.39
2022-08-17T07:04:05.164Z,25.38
2022-08-17T07:06:46.569Z,25.32
2022-08-17T07:09:41.224Z,25.34
2022-08-17T07:12:16.503Z,25.40
2022-08-17T07:14:57.551Z,25.46
2022-08-17T07:17:46.715Z,25.50
2022-08-17T07:20:22.889Z,25.53
2022-08-17T07:23:09.127Z,25.56
2022-08-17T07:25:37.475Z,25.61
2022-08-17T07:28:08.033Z,25.62
2022-08-17T07:30:50.416Z,25.61
2022-08-17T07:33:23.951Z,25.61
2022-08-17T07:35:53.060Z,25.64
2022-08-17T07:38:24.800Z,25.67
2022-08-17T07:41:05.416Z,25.69
2022-08-17T07:43:48.169Z,25.75
2022-08-17T07:46:54.920Z,25.80
2022-08-17T07:49:31.639Z,25.85
2022-08-17T07:52:48.145Z,25.88
2022-08-17T07:54:53.141Z,25.91
2022-08-17T07:57:26.648Z,25.96
2022-08-17T08:00:01.734Z,26.01
2022-08-17T08:02:35.771Z,26.07
2022-08-17T08:05:07.203Z,26.12
2022-08-17T08:07:55.167Z,26.15
2022-08-17T08:10:35.889Z,26.22
2022-08-17T08:13:12.290Z,26.24
2022-08-17T08:15:54.922Z,26.28
2022-08-17T08:18:38.605Z,26.35
2022-08-17T08:21:42.567Z,26.39
2022-08-17T08:24:22.620Z,26.41
2022-08-17T08:37:12.748Z,26.50
2022-08-17T08:40:39.567Z,26.53
2022-08-17T08:58:00.981Z,26.82
2022-08-17T08:58:05.959Z,26.89
2022-08-17T09:08:58.814Z,27.11
2022-08-17T09:12:56.551Z,27.14
2022-08-17T09:17:12.787Z,27.19
2022-08-17T09:49:28.227Z,27.61
2022-08-17T09:52:28.356Z,27.56
2022-08-17T09:55:00.410Z,27.56
2022-08-17T09:57:56.449Z,27.62
2022-08-17T10:00:33.293Z,27.69
2022-08-17T10:03:18.484Z,27.72
2022-08-17T10:06:21.738Z,27.73
2022-08-17T10:09:09.103Z,27.74
2022-08-17T10:12:11.728Z,27.76
2022-08-17T10:14:53.629Z,27.78
2022-08-17T10:17:30.026Z,27.82
2022-08-17T10:20:13.335Z,27.85
2022-08-17T10:23:09.470Z,27.89
2022-08-17T10:26:13.423Z,27.92
2022-08-17T10:28:54.157Z,27.92
2022-08-17T10:31:35.478Z,27.91
2022-08-17T10:34:19.422Z,27.90
2022-08-17T10:37:00.376Z,27.89
2022-08-17T10:39:52.739Z,27.90
2022-08-17T10:42:50.814Z,27.92
2022-08-17T10:45:48.860Z,27.94
2022-08-17T10:48:39.264Z,27.99
2022-08-17T10:51:39.388Z,28.07
2022-08-17T10:54:26.133Z,28.20
2022-08-17T11:03:11.942Z,28.36
2022-08-17T11:41:36.571Z,28.83
2022-08-17T11:45:46.422Z,28.78
2022-08-17T12:33:31.882Z,29.39
2022-08-17T12:34:14.990Z,28.97
2022-08-17T12:37:50.997Z,29.49
2022-08-17T12:47:53.204Z,29.61
2022-08-17T12:58:29.724Z,29.98
2022-08-17T13:08:43.360Z,30.10
2022-08-17T13:21:11.796Z,30.17
2022-08-17T14:03:42.285Z,28.87
2022-08-17T14:06:12.067Z,28.87
2022-08-17T14:10:36.879Z,28.86
2022-08-17T14:12:27.184Z,28.80
2022-08-17T14:15:54.731Z,28.76
2022-08-17T14:18:55.529Z,28.76
2022-08-17T14:21:20.200Z,28.75
2022-08-17T14:23:57.793Z,28.76
2022-08-17T14:26:28.203Z,28.78
2022-08-17T14:29:15.665Z,28.77
2022-08-17T14:32:01.819Z,28.76
2022-08-17T14:34:40.356Z,28.74
2022-08-17T14:37:39.258Z,28.70
2022-08-17T14:40:50.001Z,28.66
2022-08-17T14:43:19.971Z,28.64
2022-08-17T14:50:40.653Z,28.78
2022-08-17T14:53:09.982Z,28.86
2022-08-17T14:55:39.315Z,28.93
2022-08-17T14:58:07.037Z,28.98
2022-08-17T15:00:34.278Z,29.04
2022-08-17T15:03:02.152Z,29.13
2022-08-17T15:05:32.945Z,29.20
2022-08-17T15:08:01.133Z,29.26
2022-08-17T15:10:29.482Z,29.29
2022-08-17T15:12:57.492Z,29.31
2022-08-17T15:15:24.715Z,29.32
2022-08-17T15:17:51.825Z,29.31
2022-08-17T15:20:23.032Z,29.31
2022-08-17T15:22:54.778Z,29.29
2022-08-17T15:25:23.026Z,29.29
2022-08-17T15:27:50.421Z,29.26
2022-08-17T15:30:17.784Z,29.21
2022-08-17T15:32:50.791Z,29.15
2022-08-17T15:35:28.286Z,29.08
2022-08-17T15:37:57.907Z,29.01
2022-08-17T15:40:24.879Z,28.94
2022-08-17T15:42:52.178Z,28.87
2022-08-17T15:45:26.444Z,28.80
2022-08-17T15:47:53.976Z,28.73
2022-08-17T15:50:20.850Z,28.68
2022-08-17T15:52:54.344Z,28.65
2022-08-17T15:55:24.169Z,28.60
2022-08-17T15:57:51.549Z,28.54
2022-08-17T16:00:19.758Z,28.48
2022-08-17T16:03:44.508Z,28.44
2022-08-17T16:05:34.929Z,28.40
2022-08-17T16:08:02.209Z,28.34
2022-08-17T16:10:35.257Z,28.28
2022-08-17T16:13:03.898Z,28.24
2022-08-17T16:15:31.513Z,28.19
2022-08-17T16:17:58.477Z,28.13
2022-08-17T16:20:25.579Z,28.06
2022-08-17T16:22:53.179Z,28.00
2022-08-17T16:25:51.974Z,27.95
2022-08-17T16:28:16.395Z,27.88
2022-08-17T16:30:43.645Z,27.82
2022-08-17T16:33:11.902Z,27.75
2022-08-17T16:35:39.123Z,27.68
2022-08-17T16:38:07.294Z,27.60
2022-08-17T16:40:35.908Z,27.56
2022-08-17T16:43:09.916Z,27.51
2022-08-17T16:45:39.583Z,27.46
2022-08-17T16:48:07.352Z,27.41
2022-08-17T16:50:35.757Z,27.38
2022-08-17T16:53:09.838Z,27.34
2022-08-17T16:55:37.771Z,27.30
2022-08-17T16:58:30.705Z,27.26
2022-08-17T17:00:58.850Z,27.21
2022-08-17T17:14:58.881Z,26.90
2022-08-17T17:18:10.045Z,26.87
2022-08-17T17:21:25.798Z,26.83
2022-08-17T17:24:54.895Z,26.75
2022-08-17T17:28:15.278Z,26.71
2022-08-17T17:31:18.635Z,26.68
2022-08-17T17:33:52.421Z,26.62
2022-08-17T17:36:23.227Z,26.57
2022-08-17T17:39:19.660Z,26.52
2022-08-17T17:41:57.564Z,26.48
2022-08-17T17:45:33.329Z,26.45
2022-08-17T17:48:00.612Z,26.37
2022-08-17T17:51:16.518Z,26.31
2022-08-17T17:54:21.944Z,26.24
2022-08-17T17:57:31.468Z,26.16
2022-08-17T18:00:46.729Z,26.11
2022-08-17T18:03:43.043Z,26.06
2022-08-17T18:06:46.079Z,25.99
2022-08-17T18:09:51.963Z,25.92
2022-08-17T18:12:44.317Z,25.87
2022-08-17T18:16:42.075Z,25.83
2022-08-17T18:21:13.206Z,25.76
2022-08-17T18:31:31.071Z,25.54
2022-08-17T18:34:58.705Z,25.49
2022-08-17T18:42:42.423Z,25.30
2022-08-17T18:45:42.951Z,25.22
2022-08-17T18:49:00.479Z,25.15
2022-08-17T18:52:42.966Z,25.03
2022-08-17T18:55:32.088Z,24.93
2022-08-17T18:58:24.279Z,24.90
2022-08-17T19:01:21.191Z,24.83
2022-08-17T19:03:53.812Z,24.80
2022-08-17T19:27:20.673Z,24.41
2022-08-17T19:29:51.463Z,24.56
2022-08-17T19:29:57.363Z,24.38
2022-08-17T19:32:31.334Z,24.31
2022-08-17T19:35:02.691Z,24.27
2022-08-17T19:37:54.058Z,24.23
2022-08-17T19:40:54.844Z,24.20
2022-08-17T19:43:55.147Z,24.15
2022-08-17T19:46:42.965Z,24.10
2022-08-17T19:49:23.484Z,24.06
2022-08-17T19:52:21.691Z,24.03
2022-08-17T19:55:19.850Z,23.99
2022-08-17T19:58:25.641Z,23.95
2022-08-17T20:00:53.919Z,23.91
2022-08-17T20:03:29.791Z,23.87
2022-08-17T20:06:15.308Z,23.83
2022-08-17T20:08:58.313Z,23.78
2022-08-17T20:11:44.859Z,23.73
2022-08-17T20:14:20.116Z,23.68
2022-08-17T20:16:47.718Z,23.63
2022-08-17T20:19:43.257Z,23.57
2022-08-17T20:22:17.980Z,23.51
2022-08-17T20:25:01.227Z,23.48
2022-08-17T20:27:33.730Z,23.41
2022-08-17T20:30:04.091Z,23.35
2022-08-17T20:32:37.538Z,23.32
2022-08-17T20:35:37.924Z,23.29
2022-08-17T20:38:10.559Z,23.26
2022-08-17T20:41:00.616Z,23.25
2022-08-17T20:43:33.913Z,23.23
2022-08-17T20:46:09.906Z,23.22
2022-08-17T20:48:43.182Z,23.20
2022-08-17T20:51:29.273Z,23.18
2022-08-17T20:54:06.053Z,23.14
2022-08-17T20:56:59.907Z,23.11
2022-08-17T20:59:28.098Z,23.07
2022-08-17T21:02:17.539Z,23.05
2022-08-17T21:04:49.715Z,23.04
2022-08-17T21:07:28.829Z,23.03
2022-08-17T21:10:13.990Z,23.03
2022-08-17T21:12:47.893Z,23.03
2022-08-17T21:15:43.718Z,23.03
2022-08-17T21:18:48.569Z,23.01
2022-08-17T21:21:17.579Z,22.99
2022-08-17T21:23:47.749Z,22.98
2022-08-17T21:26:30.969Z,22.95
2022-08-17T21:29:01.713Z,22.93
2022-08-17T21:32:03.707Z,22.90
2022-08-17T21:34:42.007Z,22.85
2022-08-17T21:37:29.484Z,22.81
2022-08-17T21:40:19.198Z,22.79
2022-08-17T21:43:25.248Z,22.75
2022-08-17T21:46:09.798Z,22.72
2022-08-17T21:48:48.130Z,22.69
2022-08-17T21:51:26.965Z,22.66
2022-08-17T21:53:59.595Z,22.66
2022-08-17T21:56:34.290Z,22.65
2022-08-17T21:59:08.151Z,22.65
2022-08-17T22:01:39.668Z,22.63
2022-08-17T22:04:24.266Z,22.62
2022-08-17T22:06:57.041Z,22.61
2022-08-17T22:09:42.779Z,22.59
2022-08-17T22:12:23.747Z,22.56
2022-08-17T22:15:03.659Z,22.53
2022-08-17T22:17:36.058Z,22.51
2022-08-17T22:20:13.863Z,22.49
2022-08-17T22:23:08.619Z,22.43
2022-08-17T22:25:40.168Z,22.31
2022-08-17T22:28:10.512Z,22.20
2022-08-17T22:31:00.565Z,22.11
2022-08-17T22:33:49.356Z,22.04
2022-08-17T22:36:38.626Z,21.97
2022-08-17T22:39:08.505Z,21.93
2022-08-17T22:41:35.320Z,21.87
2022-08-17T22:44:14.713Z,21.87
2022-08-17T22:46:48.715Z,21.89
2022-08-17T22:49:53.608Z,21.88
2022-08-17T22:52:21.277Z,21.89
2022-08-17T22:55:09.455Z,21.90
2022-08-17T22:57:55.133Z,21.90
2022-08-17T23:00:31.080Z,21.89
2022-08-17T23:03:11.827Z,21.89
2022-08-17T23:05:45.894Z,21.87
2022-08-17T23:08:20.564Z,21.84
2022-08-17T23:10:48.212Z,21.79
2022-08-17T23:13:15.362Z,21.74
2022-08-17T23:15:42.522Z,21.71
2022-08-17T23:18:09.961Z,21.70
2022-08-17T23:20:40.013Z,21.69
2022-08-17T23:23:08.568Z,21.64
2022-08-17T23:25:36.516Z,21.54
2022-08-17T23:28:06.156Z,21.42
2022-08-17T23:30:38.905Z,21.32
2022-08-17T23:33:09.927Z,21.24
2022-08-17T23:35:40.578Z,21.18
2022-08-17T23:38:10.300Z,21.16
2022-08-17T23:40:39.612Z,21.14
2022-08-17T23:43:17.591Z,21.10
2022-08-17T23:45:59.770Z,21.02
2022-08-17T23:48:28.632Z,20.99
2022-08-17T23:51:08.734Z,20.98
2022-08-17T23:53:41.417Z,20.99
2022-08-17T23:56:11.211Z,21.01
2022-08-17T23:58:43.155Z,21.01
